sensor_id;sensor_type;location;lat;lon;timestamp;pressure;altitude;pressure_sealevel;temperature;humidity
5691;BME280;2870;42.680;23.364;2023-09-07T00:00:42;95616.66;;;21.20;83.33
5691;BME280;2870;42.680;23.364;2023-09-07T00:03:09;95615.91;;;21.07;84.25
5691;BME280;2870;42.680;23.364;2023-09-07T00:05:36;95613.53;;;20.92;85.56
5691;BME280;2870;42.680;23.364;2023-09-07T00:08:03;95612.69;;;21.01;85.35
5691;BME280;2870;42.680;23.364;2023-09-07T00:10:30;95607.59;;;21.11;86.34
5691;BME280;2870;42.680;23.364;2023-09-07T00:13:00;95604.63;;;20.98;86.48
5691;BME280;2870;42.680;23.364;2023-09-07T00:15:27;95604.38;;;20.82;88.26
5691;BME280;2870;42.680;23.364;2023-09-07T00:17:55;95600.03;;;20.81;88.84
5691;BME280;2870;42.680;23.364;2023-09-07T00:20:22;95609.44;;;20.72;89.44
5691;BME280;2870;42.680;23.364;2023-09-07T00:22:50;95605.69;;;20.57;91.33
5691;BME280;2870;42.680;23.364;2023-09-07T00:25:17;95603.47;;;20.68;90.75
5691;BME280;2870;42.680;23.364;2023-09-07T00:27:45;95602.22;;;20.59;91.38
5691;BME280;2870;42.680;23.364;2023-09-07T00:30:12;95610.66;;;20.69;91.24
5691;BME280;2870;42.680;23.364;2023-09-07T00:32:40;95606.22;;;20.66;91.63
5691;BME280;2870;42.680;23.364;2023-09-07T00:35:08;95608.16;;;20.51;92.68
5691;BME280;2870;42.680;23.364;2023-09-07T00:37:37;95604.41;;;20.37;93.97
5691;BME280;2870;42.680;23.364;2023-09-07T00:40:04;95606.84;;;20.31;93.42
5691;BME280;2870;42.680;23.364;2023-09-07T00:42:34;95612.94;;;20.37;92.99
5691;BME280;2870;42.680;23.364;2023-09-07T00:45:01;95603.56;;;20.46;92.36
5691;BME280;2870;42.680;23.364;2023-09-07T00:47:27;95609.28;;;20.58;91.20
5691;BME280;2870;42.680;23.364;2023-09-07T00:49:55;95600.97;;;20.50;91.21
5691;BME280;2870;42.680;23.364;2023-09-07T00:52:25;95605.56;;;20.55;90.83
5691;BME280;2870;42.680;23.364;2023-09-07T00:54:52;95603.72;;;20.48;91.11
5691;BME280;2870;42.680;23.364;2023-09-07T00:57:19;95610.75;;;20.47;91.03
5691;BME280;2870;42.680;23.364;2023-09-07T00:59:46;95600.72;;;20.58;91.17
5691;BME280;2870;42.680;23.364;2023-09-07T01:02:13;95603.19;;;20.52;91.11
5691;BME280;2870;42.680;23.364;2023-09-07T01:04:39;95593.66;;;20.47;91.91
5691;BME280;2870;42.680;23.364;2023-09-07T01:07:11;95593.56;;;20.57;91.23
5691;BME280;2870;42.680;23.364;2023-09-07T01:09:42;95597.88;;;20.58;91.03
5691;BME280;2870;42.680;23.364;2023-09-07T01:12:14;95600.00;;;20.57;91.04
5691;BME280;2870;42.680;23.364;2023-09-07T01:14:41;95600.09;;;20.48;91.38
5691;BME280;2870;42.680;23.364;2023-09-07T01:17:08;95604.63;;;20.41;91.70
5691;BME280;2870;42.680;23.364;2023-09-07T01:19:35;95597.72;;;20.44;92.21
5691;BME280;2870;42.680;23.364;2023-09-07T01:22:04;95603.16;;;20.40;92.04
5691;BME280;2870;42.680;23.364;2023-09-07T01:24:33;95603.28;;;20.42;92.60
5691;BME280;2870;42.680;23.364;2023-09-07T01:27:01;95599.56;;;20.39;92.88
5691;BME280;2870;42.680;23.364;2023-09-07T01:29:28;95598.47;;;20.45;92.65
5691;BME280;2870;42.680;23.364;2023-09-07T01:31:55;95601.25;;;20.54;91.91
5691;BME280;2870;42.680;23.364;2023-09-07T01:34:23;95598.94;;;20.41;92.61
5691;BME280;2870;42.680;23.364;2023-09-07T01:36:50;95598.34;;;20.43;92.60
5691;BME280;2870;42.680;23.364;2023-09-07T01:39:18;95604.09;;;20.54;92.14
5691;BME280;2870;42.680;23.364;2023-09-07T01:41:45;95593.56;;;20.57;92.22
5691;BME280;2870;42.680;23.364;2023-09-07T01:44:12;95600.00;;;20.57;92.83
5691;BME280;2870;42.680;23.364;2023-09-07T01:46:38;95599.50;;;20.49;92.98
5691;BME280;2870;42.680;23.364;2023-09-07T01:49:05;95603.66;;;20.36;94.11
5691;BME280;2870;42.680;23.364;2023-09-07T01:51:32;95604.41;;;20.37;94.65
5691;BME280;2870;42.680;23.364;2023-09-07T01:54:00;95589.47;;;20.48;93.98
5691;BME280;2870;42.680;23.364;2023-09-07T01:56:28;95598.94;;;20.41;94.48
5691;BME280;2870;42.680;23.364;2023-09-07T01:58:55;95596.72;;;20.39;94.43
5691;BME280;2870;42.680;23.364;2023-09-07T02:04:34;95600.63;;;20.56;93.85
5691;BME280;2870;42.680;23.364;2023-09-07T02:07:00;95596.31;;;20.33;95.08
5691;BME280;2870;42.680;23.364;2023-09-07T02:09:27;95597.03;;;20.22;95.85
5691;BME280;2870;42.680;23.364;2023-09-07T02:11:55;95595.94;;;20.27;95.82
5691;BME280;2870;42.680;23.364;2023-09-07T02:14:22;95595.91;;;20.16;96.36
5691;BME280;2870;42.680;23.364;2023-09-07T02:16:49;95598.88;;;20.18;96.24
5691;BME280;2870;42.680;23.364;2023-09-07T02:19:16;95601.38;;;20.23;96.14
5691;BME280;2870;42.680;23.364;2023-09-07T02:21:43;95597.31;;;20.26;95.87
5691;BME280;2870;42.680;23.364;2023-09-07T02:24:10;95602.50;;;20.30;95.97
5691;BME280;2870;42.680;23.364;2023-09-07T02:26:36;95604.72;;;20.20;96.67
5691;BME280;2870;42.680;23.364;2023-09-07T02:29:10;95601.38;;;20.23;96.33
5691;BME280;2870;42.680;23.364;2023-09-07T02:31:37;95599.38;;;20.14;97.10
5691;BME280;2870;42.680;23.364;2023-09-07T02:34:03;95604.66;;;20.08;97.40
5691;BME280;2870;42.680;23.364;2023-09-07T02:36:30;95606.00;;;20.07;98.21
5691;BME280;2870;42.680;23.364;2023-09-07T02:38:57;95604.06;;;20.09;98.26
5691;BME280;2870;42.680;23.364;2023-09-07T02:41:24;95604.88;;;20.00;98.68
5691;BME280;2870;42.680;23.364;2023-09-07T02:43:50;95610.00;;;20.13;98.22
5691;BME280;2870;42.680;23.364;2023-09-07T02:46:19;95612.44;;;20.07;98.40
5691;BME280;2870;42.680;23.364;2023-09-07T02:48:45;95606.91;;;20.09;98.09
5691;BME280;2870;42.680;23.364;2023-09-07T02:51:12;95608.91;;;19.85;99.39
5691;BME280;2870;42.680;23.364;2023-09-07T02:53:40;95605.72;;;19.91;99.81
5691;BME280;2870;42.680;23.364;2023-09-07T02:56:06;95611.22;;;19.77;100.00
5691;BME280;2870;42.680;23.364;2023-09-07T02:58:33;95599.59;;;19.85;100.00
5691;BME280;2870;42.680;23.364;2023-09-07T03:01:05;95602.88;;;19.70;100.00
5691;BME280;2870;42.680;23.364;2023-09-07T03:03:35;95604.09;;;19.67;100.00
5691;BME280;2870;42.680;23.364;2023-09-07T03:06:08;95593.94;;;19.64;100.00
5691;BME280;2870;42.680;23.364;2023-09-07T03:08:34;95602.75;;;19.68;100.00
5691;BME280;2870;42.680;23.364;2023-09-07T03:11:03;95610.41;;;19.65;100.00
5691;BME280;2870;42.680;23.364;2023-09-07T03:13:29;95607.28;;;19.61;100.00
5691;BME280;2870;42.680;23.364;2023-09-07T03:15:56;95606.31;;;19.47;100.00
5691;BME280;2870;42.680;23.364;2023-09-07T03:18:23;95608.59;;;19.39;100.00
5691;BME280;2870;42.680;23.364;2023-09-07T03:20:54;95604.16;;;19.36;100.00
5691;BME280;2870;42.680;23.364;2023-09-07T03:23:21;95603.03;;;19.19;100.00
5691;BME280;2870;42.680;23.364;2023-09-07T03:25:48;95601.00;;;19.31;100.00
5691;BME280;2870;42.680;23.364;2023-09-07T03:28:15;95604.72;;;19.13;100.00
5691;BME280;2870;42.680;23.364;2023-09-07T03:30:42;95601.75;;;19.32;100.00
5691;BME280;2870;42.680;23.364;2023-09-07T03:33:08;95599.03;;;19.34;100.00
5691;BME280;2870;42.680;23.364;2023-09-07T03:35:35;95608.06;;;19.30;100.00
5691;BME280;2870;42.680;23.364;2023-09-07T03:38:05;95606.38;;;19.37;100.00
5691;BME280;2870;42.680;23.364;2023-09-07T03:40:31;95609.75;;;19.45;100.00
5691;BME280;2870;42.680;23.364;2023-09-07T03:42:58;95616.69;;;19.42;100.00
5691;BME280;2870;42.680;23.364;2023-09-07T03:45:25;95611.28;;;19.46;100.00
5691;BME280;2870;42.680;23.364;2023-09-07T03:47:51;95619.56;;;19.32;100.00
5691;BME280;2870;42.680;23.364;2023-09-07T03:50:18;95616.44;;;19.28;100.00
5691;BME280;2870;42.680;23.364;2023-09-07T03:52:45;95622.91;;;19.29;100.00
5691;BME280;2870;42.680;23.364;2023-09-07T03:55:14;95629.91;;;19.28;100.00
5691;BME280;2870;42.680;23.364;2023-09-07T03:57:40;95626.28;;;19.37;100.00
5691;BME280;2870;42.680;23.364;2023-09-07T04:00:09;95628.75;;;19.21;100.00
5691;BME280;2870;42.680;23.364;2023-09-07T04:02:36;95635.59;;;19.28;100.00
5691;BME280;2870;42.680;23.364;2023-09-07T04:05:03;95628.63;;;19.19;100.00
5691;BME280;2870;42.680;23.364;2023-09-07T04:07:30;95635.75;;;19.30;100.00
5691;BME280;2870;42.680;23.364;2023-09-07T04:09:58;95633.34;;;19.36;100.00
5691;BME280;2870;42.680;23.364;2023-09-07T04:12:26;95636.84;;;19.25;100.00
5691;BME280;2870;42.680;23.364;2023-09-07T04:14:53;95642.13;;;19.19;100.00
5691;BME280;2870;42.680;23.364;2023-09-07T04:17:20;95642.94;;;19.31;100.00
5691;BME280;2870;42.680;23.364;2023-09-07T04:19:46;95634.94;;;19.39;100.00
5691;BME280;2870;42.680;23.364;2023-09-07T04:22:13;95634.06;;;19.37;100.00
5691;BME280;2870;42.680;23.364;2023-09-07T04:24:40;95631.84;;;19.35;100.00
5691;BME280;2870;42.680;23.364;2023-09-07T04:27:07;95635.34;;;19.45;100.00
5691;BME280;2870;42.680;23.364;2023-09-07T04:29:35;95643.22;;;19.35;100.00
5691;BME280;2870;42.680;23.364;2023-09-07T04:32:02;95639.84;;;19.48;100.00
5691;BME280;2870;42.680;23.364;2023-09-07T04:34:28;95635.63;;;19.49;100.00
5691;BME280;2870;42.680;23.364;2023-09-07T04:36:55;95647.22;;;19.42;100.00
5691;BME280;2870;42.680;23.364;2023-09-07T04:39:22;95637.00;;;19.48;100.00
5691;BME280;2870;42.680;23.364;2023-09-07T04:41:49;95639.97;;;19.50;100.00
5691;BME280;2870;42.680;23.364;2023-09-07T04:44:17;95649.75;;;19.47;100.00
5691;BME280;2870;42.680;23.364;2023-09-07T04:46:46;95653.44;;;19.59;100.00
5691;BME280;2870;42.680;23.364;2023-09-07T04:49:13;95650.69;;;19.40;100.00
5691;BME280;2870;42.680;23.364;2023-09-07T04:51:39;95655.97;;;19.55;100.00
5691;BME280;2870;42.680;23.364;2023-09-07T04:54:06;95653.56;;;19.62;100.00
5691;BME280;2870;42.680;23.364;2023-09-07T04:56:33;95657.50;;;19.78;100.00
5691;BME280;2870;42.680;23.364;2023-09-07T04:59:00;95660.69;;;19.72;100.00
5691;BME280;2870;42.680;23.364;2023-09-07T05:01:26;95655.47;;;19.69;100.00
5691;BME280;2870;42.680;23.364;2023-09-07T05:03:54;95666.03;;;19.78;100.00
5691;BME280;2870;42.680;23.364;2023-09-07T05:06:21;95654.19;;;19.60;100.00
5691;BME280;2870;42.680;23.364;2023-09-07T05:08:48;95655.94;;;19.65;100.00
5691;BME280;2870;42.680;23.364;2023-09-07T05:11:15;95653.44;;;19.59;100.00
5691;BME280;2870;42.680;23.364;2023-09-07T05:13:41;95655.97;;;19.55;100.00
5691;BME280;2870;42.680;23.364;2023-09-07T05:16:08;95664.84;;;19.50;100.00
5691;BME280;2870;42.680;23.364;2023-09-07T05:18:35;95657.75;;;19.61;100.00
5691;BME280;2870;42.680;23.364;2023-09-07T05:21:12;95662.03;;;19.71;100.00
5691;BME280;2870;42.680;23.364;2023-09-07T05:23:39;95662.16;;;19.52;100.00
5691;BME280;2870;42.680;23.364;2023-09-07T05:26:06;95674.84;;;19.61;100.00
5691;BME280;2870;42.680;23.364;2023-09-07T05:28:33;95678.59;;;19.53;100.00
5691;BME280;2870;42.680;23.364;2023-09-07T05:31:00;95666.25;;;19.39;100.00
5691;BME280;2870;42.680;23.364;2023-09-07T05:33:27;95666.91;;;19.59;100.00
5691;BME280;2870;42.680;23.364;2023-09-07T05:35:53;95672.81;;;19.73;100.00
5691;BME280;2870;42.680;23.364;2023-09-07T05:38:22;95669.03;;;19.80;100.00
5691;BME280;2870;42.680;23.364;2023-09-07T05:40:48;95668.38;;;19.91;100.00
5691;BME280;2870;42.680;23.364;2023-09-07T05:43:19;95669.97;;;19.94;100.00
5691;BME280;2870;42.680;23.364;2023-09-07T05:45:46;95673.63;;;20.06;100.00
5691;BME280;2870;42.680;23.364;2023-09-07T05:48:13;95682.03;;;20.04;100.00
5691;BME280;2870;42.680;23.364;2023-09-07T05:50:42;95675.78;;;20.18;100.00
5691;BME280;2870;42.680;23.364;2023-09-07T05:53:09;95672.38;;;20.31;100.00
5691;BME280;2870;42.680;23.364;2023-09-07T05:55:37;95679.69;;;20.34;100.00
5691;BME280;2870;42.680;23.364;2023-09-07T05:58:05;95669.88;;;20.25;100.00
5691;BME280;2870;42.680;23.364;2023-09-07T06:00:32;95675.53;;;20.47;100.00
5691;BME280;2870;42.680;23.364;2023-09-07T06:02:58;95670.38;;;20.55;100.00
5691;BME280;2870;42.680;23.364;2023-09-07T06:05:25;95675.59;;;20.58;100.00
5691;BME280;2870;42.680;23.364;2023-09-07T06:07:52;95673.66;;;20.73;100.00
5691;BME280;2870;42.680;23.364;2023-09-07T06:10:19;95673.56;;;20.82;98.83
5691;BME280;2870;42.680;23.364;2023-09-07T06:12:47;95675.31;;;20.99;97.73
5691;BME280;2870;42.680;23.364;2023-09-07T06:15:14;95683.63;;;20.95;94.29
5691;BME280;2870;42.680;23.364;2023-09-07T06:17:41;95667.22;;;20.84;91.70
5691;BME280;2870;42.680;23.364;2023-09-07T06:20:09;95678.03;;;20.97;91.36
5691;BME280;2870;42.680;23.364;2023-09-07T06:22:36;95681.94;;;21.37;91.22
5691;BME280;2870;42.680;23.364;2023-09-07T06:25:03;95685.66;;;21.39;90.58
5691;BME280;2870;42.680;23.364;2023-09-07T06:27:29;95689.38;;;21.54;88.63
5691;BME280;2870;42.680;23.364;2023-09-07T06:29:57;95692.84;;;21.64;87.27
5691;BME280;2870;42.680;23.364;2023-09-07T06:32:24;95691.59;;;21.55;86.96
5691;BME280;2870;42.680;23.364;2023-09-07T06:34:51;95686.75;;;21.58;85.35
5691;BME280;2870;42.680;23.364;2023-09-07T06:37:18;95693.56;;;21.76;84.84
5691;BME280;2870;42.680;23.364;2023-09-07T06:39:45;95698.53;;;21.76;85.29
5691;BME280;2870;42.680;23.364;2023-09-07T06:42:11;95698.00;;;22.03;84.50
5691;BME280;2870;42.680;23.364;2023-09-07T06:44:40;95694.00;;;22.19;83.50
5691;BME280;2870;42.680;23.364;2023-09-07T06:47:09;95690.00;;;22.25;80.57
5691;BME280;2870;42.680;23.364;2023-09-07T06:49:37;95696.81;;;22.31;81.12
5691;BME280;2870;42.680;23.364;2023-09-07T06:52:04;95697.22;;;22.26;80.05
5691;BME280;2870;42.680;23.364;2023-09-07T06:54:31;95698.34;;;22.20;81.17
5691;BME280;2870;42.680;23.364;2023-09-07T06:56:58;95643.06;;;21.67;81.79
5691;BME280;2870;42.680;23.364;2023-09-07T06:59:24;95692.75;;;22.22;78.42
5691;BME280;2870;42.680;23.364;2023-09-07T07:01:51;95700.09;;;22.51;77.50
5691;BME280;2870;42.680;23.364;2023-09-07T07:04:19;95693.97;;;22.82;76.22
5691;BME280;2870;42.680;23.364;2023-09-07T07:06:46;95682.94;;;23.02;74.91
5691;BME280;2870;42.680;23.364;2023-09-07T07:09:13;95681.50;;;23.28;74.17
5691;BME280;2870;42.680;23.364;2023-09-07T07:11:39;95684.63;;;23.74;73.48
5691;BME280;2870;42.680;23.364;2023-09-07T07:14:08;95690.13;;;23.97;71.20
5691;BME280;2870;42.680;23.364;2023-09-07T07:16:36;95688.22;;;23.47;72.11
5691;BME280;2870;42.680;23.364;2023-09-07T07:19:03;95691.09;;;23.74;71.90
5691;BME280;2870;42.680;23.364;2023-09-07T07:21:31;95691.00;;;23.86;68.76
5691;BME280;2870;42.680;23.364;2023-09-07T07:23:58;95691.44;;;23.94;68.76
5691;BME280;2870;42.680;23.364;2023-09-07T07:26:25;95704.59;;;23.86;64.73
5691;BME280;2870;42.680;23.364;2023-09-07T07:28:52;95707.53;;;23.60;65.15
5691;BME280;2870;42.680;23.364;2023-09-07T07:31:18;95708.28;;;23.61;66.01
5691;BME280;2870;42.680;23.364;2023-09-07T07:33:46;95707.88;;;23.66;65.77
5691;BME280;2870;42.680;23.364;2023-09-07T07:36:13;95706.06;;;23.73;63.74
5691;BME280;2870;42.680;23.364;2023-09-07T07:38:41;95703.69;;;24.11;64.03
5691;BME280;2870;42.680;23.364;2023-09-07T07:41:08;95704.16;;;24.62;63.04
5691;BME280;2870;42.680;23.364;2023-09-07T07:43:35;95700.72;;;24.95;61.92
5691;BME280;2870;42.680;23.364;2023-09-07T07:46:01;95712.94;;;24.66;61.55
5691;BME280;2870;42.680;23.364;2023-09-07T07:48:28;95713.00;;;24.52;61.56
5691;BME280;2870;42.680;23.364;2023-09-07T07:50:55;95708.97;;;24.44;61.23
5691;BME280;2870;42.680;23.364;2023-09-07T07:53:22;95708.25;;;24.73;60.23
5691;BME280;2870;42.680;23.364;2023-09-07T07:55:50;95707.25;;;25.11;59.88
5691;BME280;2870;42.680;23.364;2023-09-07T07:58:17;95716.72;;;25.46;59.27
5691;BME280;2870;42.680;23.364;2023-09-07T08:00:44;95711.81;;;24.87;58.43
5691;BME280;2870;42.680;23.364;2023-09-07T08:03:13;95711.56;;;24.67;60.00
5691;BME280;2870;42.680;23.364;2023-09-07T08:05:39;95714.13;;;24.61;58.43
5691;BME280;2870;42.680;23.364;2023-09-07T08:08:06;95719.72;;;24.73;58.82
5691;BME280;2870;42.680;23.364;2023-09-07T08:10:33;95706.91;;;24.60;59.35
5691;BME280;2870;42.680;23.364;2023-09-07T08:13:03;95715.69;;;24.35;58.60
5691;BME280;2870;42.680;23.364;2023-09-07T08:15:32;95701.19;;;24.60;58.97
5691;BME280;2870;42.680;23.364;2023-09-07T08:17:59;95701.66;;;24.41;60.09
5691;BME280;2870;42.680;23.364;2023-09-07T08:20:26;95706.13;;;24.30;61.20
5691;BME280;2870;42.680;23.364;2023-09-07T08:22:53;95706.59;;;24.68;60.83
5691;BME280;2870;42.680;23.364;2023-09-07T08:25:20;95701.91;;;25.20;59.94
5691;BME280;2870;42.680;23.364;2023-09-07T08:27:46;95704.88;;;25.53;57.26
5691;BME280;2870;42.680;23.364;2023-09-07T08:30:16;95683.38;;;25.70;55.09
5691;BME280;2870;42.680;23.364;2023-09-07T08:32:43;95694.63;;;26.65;53.35
5691;BME280;2870;42.680;23.364;2023-09-07T08:35:11;95709.75;;;27.19;52.85
5691;BME280;2870;42.680;23.364;2023-09-07T08:37:39;95710.06;;;27.65;48.85
5691;BME280;2870;42.680;23.364;2023-09-07T08:40:07;95703.25;;;27.74;48.84
5691;BME280;2870;42.680;23.364;2023-09-07T08:42:35;95704.16;;;28.20;47.35
5691;BME280;2870;42.680;23.364;2023-09-07T08:45:04;95702.72;;;28.41;46.41
5691;BME280;2870;42.680;23.364;2023-09-07T08:47:34;95702.53;;;28.35;46.36
5691;BME280;2870;42.680;23.364;2023-09-07T08:50:02;95701.81;;;28.57;46.48
5691;BME280;2870;42.680;23.364;2023-09-07T08:52:31;95699.50;;;28.31;45.39
5691;BME280;2870;42.680;23.364;2023-09-07T08:54:58;95697.53;;;27.76;45.33
5691;BME280;2870;42.680;23.364;2023-09-07T08:57:26;95691.31;;;27.64;46.48
5691;BME280;2870;42.680;23.364;2023-09-07T08:59:53;95696.72;;;27.93;45.82
5691;BME280;2870;42.680;23.364;2023-09-07T09:02:20;95696.22;;;28.41;46.36
5691;BME280;2870;42.680;23.364;2023-09-07T09:04:48;95699.94;;;28.43;44.93
5691;BME280;2870;42.680;23.364;2023-09-07T09:07:16;95700.84;;;29.16;41.78
5691;BME280;2870;42.680;23.364;2023-09-07T09:09:42;95696.72;;;28.77;43.34
5691;BME280;2870;42.680;23.364;2023-09-07T09:12:10;95693.47;;;29.56;41.79
5691;BME280;2870;42.680;23.364;2023-09-07T09:14:39;95661.63;;;29.33;41.93
5691;BME280;2870;42.680;23.364;2023-09-07T09:17:11;95694.88;;;29.55;40.99
5691;BME280;2870;42.680;23.364;2023-09-07T09:19:38;95690.66;;;29.13;43.09
5691;BME280;2870;42.680;23.364;2023-09-07T09:22:06;95689.69;;;29.28;40.62
5691;BME280;2870;42.680;23.364;2023-09-07T09:24:34;95675.09;;;28.78;41.95
5691;BME280;2870;42.680;23.364;2023-09-07T09:27:00;95686.97;;;28.03;44.05
5691;BME280;2870;42.680;23.364;2023-09-07T09:29:28;95673.28;;;28.03;44.18
5691;BME280;2870;42.680;23.364;2023-09-07T09:31:54;95680.00;;;28.51;44.12
5691;BME280;2870;42.680;23.364;2023-09-07T09:34:21;95679.94;;;28.49;42.63
5691;BME280;2870;42.680;23.364;2023-09-07T09:36:49;95665.47;;;28.27;43.54
5691;BME280;2870;42.680;23.364;2023-09-07T09:39:24;95678.31;;;27.63;43.76
5691;BME280;2870;42.680;23.364;2023-09-07T09:41:51;95669.56;;;27.61;43.83
5691;BME280;2870;42.680;23.364;2023-09-07T09:44:21;95669.41;;;27.96;43.91
5691;BME280;2870;42.680;23.364;2023-09-07T09:46:51;95665.78;;;27.56;44.18
5691;BME280;2870;42.680;23.364;2023-09-07T09:49:20;95664.31;;;28.15;44.03
5691;BME280;2870;42.680;23.364;2023-09-07T09:51:48;95660.22;;;27.80;43.88
5691;BME280;2870;42.680;23.364;2023-09-07T09:54:16;95662.53;;;27.66;43.41
5691;BME280;2870;42.680;23.364;2023-09-07T09:56:45;95659.50;;;28.21;43.92
5691;BME280;2870;42.680;23.364;2023-09-07T09:59:12;95663.09;;;28.22;44.17
5691;BME280;2870;42.680;23.364;2023-09-07T10:01:43;95661.31;;;27.71;43.36
5691;BME280;2870;42.680;23.364;2023-09-07T10:04:12;95646.72;;;27.67;44.94
5691;BME280;2870;42.680;23.364;2023-09-07T10:06:50;95650.44;;;27.89;45.30
5691;BME280;2870;42.680;23.364;2023-09-07T10:09:17;95648.00;;;28.43;45.04
5691;BME280;2870;42.680;23.364;2023-09-07T10:11:51;95651.53;;;28.42;42.71
5691;BME280;2870;42.680;23.364;2023-09-07T10:14:18;95650.75;;;27.97;42.53
5691;BME280;2870;42.680;23.364;2023-09-07T10:16:47;95644.28;;;27.59;43.24
5691;BME280;2870;42.680;23.364;2023-09-07T10:19:18;95645.81;;;27.23;45.28
5691;BME280;2870;42.680;23.364;2023-09-07T10:21:45;95643.47;;;26.81;45.72
5691;BME280;2870;42.680;23.364;2023-09-07T10:24:24;95641.91;;;27.14;45.25
5691;BME280;2870;42.680;23.364;2023-09-07T10:26:59;95634.53;;;27.29;44.44
5691;BME280;2870;42.680;23.364;2023-09-07T10:29:26;95637.69;;;26.99;44.83
5691;BME280;2870;42.680;23.364;2023-09-07T10:31:53;95630.50;;;26.80;46.34
5691;BME280;2870;42.680;23.364;2023-09-07T10:34:20;95633.78;;;26.55;46.21
5691;BME280;2870;42.680;23.364;2023-09-07T10:36:48;95600.59;;;26.52;46.23
5691;BME280;2870;42.680;23.364;2023-09-07T10:39:18;95627.88;;;26.51;46.58
5691;BME280;2870;42.680;23.364;2023-09-07T10:41:45;95628.84;;;26.39;46.28
5691;BME280;2870;42.680;23.364;2023-09-07T10:44:13;95629.84;;;26.64;45.74
5691;BME280;2870;42.680;23.364;2023-09-07T10:46:40;95629.78;;;27.00;45.30
5691;BME280;2870;42.680;23.364;2023-09-07T10:49:08;95626.47;;;27.25;45.79
5691;BME280;2870;42.680;23.364;2023-09-07T10:51:41;95627.38;;;26.74;45.93
5691;BME280;2870;42.680;23.364;2023-09-07T10:54:16;95633.78;;;26.90;44.93
5691;BME280;2870;42.680;23.364;2023-09-07T10:56:44;95619.97;;;26.69;44.78
5691;BME280;2870;42.680;23.364;2023-09-07T10:59:14;95625.00;;;26.68;45.80
5691;BME280;2870;42.680;23.364;2023-09-07T11:01:40;95628.31;;;26.61;45.61
5691;BME280;2870;42.680;23.364;2023-09-07T11:04:07;95633.53;;;26.49;46.10
5691;BME280;2870;42.680;23.364;2023-09-07T11:06:36;95625.81;;;26.71;45.84
5691;BME280;2870;42.680;23.364;2023-09-07T11:09:04;95629.34;;;26.34;46.24
5691;BME280;2870;42.680;23.364;2023-09-07T11:11:34;95630.56;;;26.29;47.10
5691;BME280;2870;42.680;23.364;2023-09-07T11:14:02;95632.94;;;26.34;47.72
5691;BME280;2870;42.680;23.364;2023-09-07T11:16:30;95623.22;;;26.08;47.15
5691;BME280;2870;42.680;23.364;2023-09-07T11:19:02;95613.59;;;25.52;48.68
5691;BME280;2870;42.680;23.364;2023-09-07T11:21:30;95619.72;;;25.76;48.14
5691;BME280;2870;42.680;23.364;2023-09-07T11:23:58;95616.44;;;25.68;48.46
5691;BME280;2870;42.680;23.364;2023-09-07T11:26:25;95622.25;;;25.85;48.42
5691;BME280;2870;42.680;23.364;2023-09-07T11:28:51;95612.63;;;26.12;47.92
5691;BME280;2870;42.680;23.364;2023-09-07T11:31:19;95623.59;;;25.82;48.42
5691;BME280;2870;42.680;23.364;2023-09-07T11:33:49;95617.78;;;25.98;49.44
5691;BME280;2870;42.680;23.364;2023-09-07T11:36:16;95619.13;;;25.63;49.51
5691;BME280;2870;42.680;23.364;2023-09-07T11:38:43;95612.91;;;25.85;49.59
5691;BME280;2870;42.680;23.364;2023-09-07T11:41:11;95620.88;;;25.86;48.71
5691;BME280;2870;42.680;23.364;2023-09-07T11:43:38;95616.94;;;25.96;48.42
5691;BME280;2870;42.680;23.364;2023-09-07T11:46:05;95609.94;;;25.83;48.59
5691;BME280;2870;42.680;23.364;2023-09-07T11:48:32;95611.28;;;25.98;49.24
5691;BME280;2870;42.680;23.364;2023-09-07T11:51:01;95603.53;;;25.84;48.16
5691;BME280;2870;42.680;23.364;2023-09-07T11:53:28;95605.59;;;25.82;48.52
5691;BME280;2870;42.680;23.364;2023-09-07T11:55:56;95608.56;;;25.84;48.69
5691;BME280;2870;42.680;23.364;2023-09-07T11:58:24;95601.34;;;25.67;48.17
5691;BME280;2870;42.680;23.364;2023-09-07T12:00:52;95595.16;;;25.57;48.92
5691;BME280;2870;42.680;23.364;2023-09-07T12:03:19;95594.78;;;25.64;49.21
5691;BME280;2870;42.680;23.364;2023-09-07T12:05:46;95587.41;;;25.44;49.20
5691;BME280;2870;42.680;23.364;2023-09-07T12:08:14;95591.16;;;25.64;48.96
5691;BME280;2870;42.680;23.364;2023-09-07T12:10:41;95585.34;;;25.46;48.66
5691;BME280;2870;42.680;23.364;2023-09-07T12:13:07;95591.06;;;25.62;48.82
5691;BME280;2870;42.680;23.364;2023-09-07T12:15:34;95597.28;;;25.56;48.59
5691;BME280;2870;42.680;23.364;2023-09-07T12:18:01;95587.69;;;25.34;48.91
5691;BME280;2870;42.680;23.364;2023-09-07T12:20:28;95589.25;;;25.53;48.33
5691;BME280;2870;42.680;23.364;2023-09-07T12:22:55;95592.53;;;25.63;47.94
5691;BME280;2870;42.680;23.364;2023-09-07T12:25:23;95592.22;;;25.88;48.78
5691;BME280;2870;42.680;23.364;2023-09-07T12:27:50;95594.19;;;25.84;48.30
5691;BME280;2870;42.680;23.364;2023-09-07T12:30:18;95591.16;;;25.98;47.47
5691;BME280;2870;42.680;23.364;2023-09-07T12:32:46;95581.63;;;25.59;47.93
5691;BME280;2870;42.680;23.364;2023-09-07T12:35:32;95584.63;;;25.30;48.51
5691;BME280;2870;42.680;23.364;2023-09-07T12:38:00;95586.09;;;25.47;49.01
5691;BME280;2870;42.680;23.364;2023-09-07T12:40:28;95586.28;;;25.51;47.98
5691;BME280;2870;42.680;23.364;2023-09-07T12:42:55;95582.44;;;25.62;48.05
5691;BME280;2870;42.680;23.364;2023-09-07T12:45:21;95590.81;;;25.56;48.05
5691;BME280;2870;42.680;23.364;2023-09-07T12:47:48;95586.97;;;25.67;47.91
5691;BME280;2870;42.680;23.364;2023-09-07T12:50:15;95592.53;;;25.63;47.83
5691;BME280;2870;42.680;23.364;2023-09-07T12:52:42;95596.06;;;25.77;47.42
5691;BME280;2870;42.680;23.364;2023-09-07T12:55:08;95590.03;;;25.71;47.83
5691;BME280;2870;42.680;23.364;2023-09-07T12:57:37;95596.84;;;25.46;47.46
5691;BME280;2870;42.680;23.364;2023-09-07T13:00:04;95592.34;;;25.25;47.59
5691;BME280;2870;42.680;23.364;2023-09-07T13:02:32;95610.72;;;25.52;47.38
5691;BME280;2870;42.680;23.364;2023-09-07T13:04:59;95608.81;;;25.90;46.81
5691;BME280;2870;42.680;23.364;2023-09-07T13:07:25;95609.22;;;25.82;46.55
5691;BME280;2870;42.680;23.364;2023-09-07T13:09:52;95604.22;;;25.67;46.50
5691;BME280;2870;42.680;23.364;2023-09-07T13:12:20;95594.31;;;25.70;47.20